Time;durP1;ratioP1;P1;durP2;ratioP2;P2;SDS_P1;SDS_P2;PMS_P1;PMS_P2;Temp;Humidity;BMP_temperature;BMP_pressure;BME280_temperature;BME280_humidity;BME280_pressure;Samples;Min_cycle;Max_cycle;Signal;HPM_P1;HPM_P2
2023/10/11 00:01:58;;;;;;;9.43;5.20;;;;;;;-148.88;91.83;-17125.47;5034257;28;20045;-86
2023/10/11 00:04:23;;;;;;;10.13;4.70;;;;;;;-148.88;91.99;-17125.47;5034146;28;20021;-88
2023/10/11 00:06:55;;;;;;;9.65;5.03;;;;;;;-148.88;90.92;-17125.47;5034028;28;20083;-86
2023/10/11 00:09:34;;;;;;;8.93;4.25;;;;;;;-148.88;91.26;-17125.47;5034806;28;20083;-89
2023/10/11 00:12:00;;;;;;;8.90;4.78;;;;;;;-148.88;91.75;-17125.47;5033968;28;20104;-88
2023/10/11 00:14:26;;;;;;;9.68;4.53;;;;;;;-148.88;92.98;-17125.47;5035525;28;20070;-89
2023/10/11 00:16:53;;;;;;;11.65;4.78;;;;;;;-148.88;91.89;-17125.47;5033856;28;20026;-88
2023/10/11 00:19:18;;;;;;;8.10;4.30;;;;;;;-148.88;91.56;-17125.47;5033723;28;20029;-87
2023/10/11 00:21:44;;;;;;;8.20;4.35;;;;;;;-148.88;92.70;-17125.47;5033933;28;20036;-88
2023/10/11 00:24:11;;;;;;;7.32;4.57;;;;;;;-148.88;92.41;-17125.47;5034381;28;20026;-88
2023/10/11 00:26:40;;;;;;;7.00;4.15;;;;;;;-148.88;93.19;-17125.47;5035369;28;20033;-86
2023/10/11 00:29:06;;;;;;;10.98;4.82;;;;;;;-148.88;92.98;-17125.47;5034298;28;20025;-87
2023/10/11 00:31:34;;;;;;;9.45;5.07;;;;;;;-148.88;91.29;-17125.47;5033984;28;20121;-88
2023/10/11 00:34:03;;;;;;;9.48;4.72;;;;;;;-148.88;92.73;-17125.47;5034959;28;20021;-88
2023/10/11 00:36:31;;;;;;;7.43;4.63;;;;;;;-148.88;92.41;-17125.47;5034902;28;20045;-90
2023/10/11 00:38:57;;;;;;;9.75;5.10;;;;;;;-148.88;92.73;-17125.47;5033845;28;20104;-90
2023/10/11 00:41:25;;;;;;;8.18;4.75;;;;;;;-148.88;92.64;-17125.47;5034764;28;20124;-87
2023/10/11 00:43:53;;;;;;;9.13;4.30;;;;;;;-148.88;92.92;-17125.47;5034792;28;20127;-88
2023/10/11 00:46:21;;;;;;;10.65;4.50;;;;;;;-148.88;92.52;-17125.47;5034543;28;20489;-87
2023/10/11 00:48:53;;;;;;;9.80;4.75;;;;;;;-148.88;92.60;-17125.47;5033145;28;20066;-87
2023/10/11 00:51:25;;;;;;;8.77;4.85;;;;;;;-148.88;93.00;-17125.47;5033244;28;20486;-87
2023/10/11 00:53:51;;;;;;;8.20;4.75;;;;;;;-148.88;92.90;-17125.47;5033618;28;20029;-90
2023/10/11 00:56:18;;;;;;;10.20;4.95;;;;;;;-148.88;92.21;-17125.47;5033124;28;20398;-86
2023/10/11 00:58:44;;;;;;;9.00;4.95;;;;;;;-148.88;91.91;-17125.47;5034664;28;20163;-89
2023/10/11 01:01:10;;;;;;;9.02;4.70;;;;;;;-148.88;92.73;-17125.47;5034562;28;20108;-88
2023/10/11 01:03:37;;;;;;;8.45;4.85;;;;;;;-148.88;92.54;-17125.47;5033942;28;20343;-89
2023/10/11 01:06:04;;;;;;;10.07;4.70;;;;;;;-148.88;93.24;-17125.47;5033013;28;20036;-89
2023/10/11 01:08:38;;;;;;;9.93;5.47;;;;;;;-148.88;93.27;-17125.47;5033359;28;20401;-90
2023/10/11 01:11:11;;;;;;;10.00;4.93;;;;;;;-148.88;93.02;-17125.47;5032972;28;20485;-89
2023/10/11 01:13:43;;;;;;;9.52;4.65;;;;;;;-148.88;93.70;-17125.47;5034131;28;20017;-90
2023/10/11 01:16:14;;;;;;;10.23;4.80;;;;;;;-148.88;92.62;-17125.47;5033139;28;20409;-89
2023/10/11 01:18:40;;;;;;;9.63;4.90;;;;;;;-148.88;93.15;-17125.47;5032869;28;20063;-89
2023/10/11 01:21:07;;;;;;;12.25;5.25;;;;;;;-148.88;92.00;-17125.47;5032050;28;20515;-89
2023/10/11 01:23:35;;;;;;;9.13;4.28;;;;;;;-148.88;92.10;-17125.47;5034142;28;20033;-88
2023/10/11 01:26:06;;;;;;;11.68;5.63;;;;;;;-148.88;92.42;-17125.47;5034611;28;20075;-89
2023/10/11 01:28:31;;;;;;;9.70;5.00;;;;;;;-148.88;92.02;-17125.47;5032652;28;20037;-89
2023/10/11 01:30:57;;;;;;;6.60;4.20;;;;;;;-148.88;91.79;-17125.47;5033860;28;20111;-88
2023/10/11 01:33:22;;;;;;;10.57;4.90;;;;;;;-148.88;91.23;-17125.47;5032451;28;20022;-87
2023/10/11 01:35:49;;;;;;;8.30;5.05;;;;;;;-148.88;91.65;-17125.47;5034010;28;20112;-86
2023/10/11 01:38:17;;;;;;;12.82;5.22;;;;;;;-148.88;91.75;-17125.47;5032966;28;20029;-88
2023/10/11 01:40:43;;;;;;;9.90;5.13;;;;;;;-148.88;91.29;-17125.47;5032387;28;20375;-87
2023/10/11 01:43:09;;;;;;;9.82;4.88;;;;;;;-148.88;92.28;-17125.47;5032551;28;20482;-88
2023/10/11 01:45:34;;;;;;;11.65;5.40;;;;;;;-148.88;91.39;-17125.47;5033703;28;20104;-85
2023/10/11 01:48:00;;;;;;;11.18;4.90;;;;;;;-148.88;90.58;-17125.47;5033572;28;20021;-86
2023/10/11 01:50:28;;;;;;;8.57;4.60;;;;;;;-148.88;91.72;-17125.47;5032080;28;20068;-87
2023/10/11 01:52:54;;;;;;;9.35;5.07;;;;;;;-148.88;90.67;-17125.47;5033506;28;20036;-86
2023/10/11 01:55:20;;;;;;;11.02;4.45;;;;;;;-148.88;90.98;-17125.47;5033585;28;20026;-88
2023/10/11 01:57:45;;;;;;;8.73;5.13;;;;;;;-148.88;91.43;-17125.47;5031858;28;20032;-87
2023/10/11 02:00:14;;;;;;;8.00;4.70;;;;;;;-148.88;90.89;-17125.47;5032974;28;20029;-87
2023/10/11 02:02:47;;;;;;;9.27;5.43;;;;;;;-148.88;90.78;-17125.47;5033042;28;20485;-89
2023/10/11 02:05:17;;;;;;;9.27;5.13;;;;;;;-148.88;91.03;-17125.47;5032752;28;20493;-89
2023/10/11 02:07:42;;;;;;;10.25;5.00;;;;;;;-148.88;91.46;-17125.47;5033224;28;20033;-89
2023/10/11 02:10:12;;;;;;;13.73;5.45;;;;;;;-148.88;91.14;-17125.47;5033316;28;20079;-89
2023/10/11 02:12:44;;;;;;;11.02;4.88;;;;;;;-148.88;91.13;-17125.47;5033186;28;20029;-87
2023/10/11 02:15:11;;;;;;;12.25;5.30;;;;;;;-148.88;90.73;-17125.47;5032329;28;20485;-88
2023/10/11 02:17:39;;;;;;;14.02;5.47;;;;;;;-148.88;90.97;-17125.47;5031735;28;20478;-86
2023/10/11 02:20:16;;;;;;;12.18;5.10;;;;;;;-148.88;91.03;-17125.47;5031508;28;20570;-87
2023/10/11 02:22:44;;;;;;;9.85;5.32;;;;;;;-148.88;90.59;-17125.47;5032762;28;20032;-87
2023/10/11 02:25:14;;;;;;;7.63;4.65;;;;;;;-148.88;91.31;-17125.47;5031406;28;20107;-88
2023/10/11 02:27:41;;;;;;;7.75;4.22;;;;;;;-148.88;90.68;-17125.47;5031698;28;20063;-89
2023/10/11 02:30:13;;;;;;;10.32;4.85;;;;;;;-148.88;90.97;-17125.47;5031275;28;20029;-87
2023/10/11 02:32:41;;;;;;;8.75;4.70;;;;;;;-148.88;92.02;-17125.47;5032305;28;20021;-87
2023/10/11 02:35:08;;;;;;;11.13;5.10;;;;;;;-148.88;92.54;-17125.47;5031454;28;20025;-87
2023/10/11 02:37:37;;;;;;;10.77;4.90;;;;;;;-148.88;91.90;-17125.47;5031342;28;20033;-87
2023/10/11 02:40:08;;;;;;;9.07;5.10;;;;;;;-148.88;92.56;-17125.47;5032379;28;20022;-87
2023/10/11 02:42:37;;;;;;;11.82;5.22;;;;;;;-148.88;92.55;-17125.47;5031371;28;20025;-86
2023/10/11 02:45:07;;;;;;;10.18;5.38;;;;;;;-148.88;92.60;-17125.47;5031938;28;20378;-87
2023/10/11 02:47:38;;;;;;;9.48;5.28;;;;;;;-148.88;93.41;-17125.47;5031252;28;20017;-88
2023/10/11 02:50:07;;;;;;;9.02;5.07;;;;;;;-148.88;93.29;-17125.47;5032688;28;20083;-88
2023/10/11 02:52:36;;;;;;;9.27;5.03;;;;;;;-148.88;93.62;-17125.47;5033110;28;20104;-88
2023/10/11 02:55:16;;;;;;;9.88;5.72;;;;;;;-148.88;93.91;-17125.47;5031767;28;20028;-87
2023/10/11 02:57:42;;;;;;;11.77;5.68;;;;;;;-148.88;94.12;-17125.47;5031528;28;20528;-87
2023/10/11 03:00:21;;;;;;;9.50;4.95;;;;;;;-148.88;93.65;-17125.47;5031256;28;20048;-88
2023/10/11 03:02:55;;;;;;;11.93;5.85;;;;;;;-148.88;93.75;-17125.47;5031791;28;20025;-87
2023/10/11 03:05:28;;;;;;;11.18;5.60;;;;;;;-148.88;94.27;-17125.47;5031246;28;20033;-88
2023/10/11 03:07:55;;;;;;;12.13;5.30;;;;;;;-148.88;94.38;-17125.47;5031258;28;20034;-84
2023/10/11 03:10:21;;;;;;;11.63;5.32;;;;;;;-148.88;94.16;-17125.47;5032451;28;20076;-85
2023/10/11 03:12:50;;;;;;;10.80;5.63;;;;;;;-148.88;94.26;-17125.47;5032752;28;20029;-84
2023/10/11 03:15:19;;;;;;;8.30;5.00;;;;;;;-148.88;93.49;-17125.47;5031519;28;20080;-86
2023/10/11 03:17:46;;;;;;;9.95;5.40;;;;;;;-148.88;94.51;-17125.47;5032689;28;20021;-86
2023/10/11 03:20:36;;;;;;;10.45;4.97;;;;;;;-148.88;93.87;-17125.47;5032253;28;20025;-86
2023/10/11 03:23:04;;;;;;;9.27;4.90;;;;;;;-148.88;93.67;-17125.47;5032945;28;20021;-86
2023/10/11 03:25:37;;;;;;;10.05;5.38;;;;;;;-148.88;93.63;-17125.47;5032588;28;20033;-86
2023/10/11 03:28:03;;;;;;;10.43;5.30;;;;;;;-148.88;94.15;-17125.47;5032601;28;20025;-87
2023/10/11 03:30:34;;;;;;;8.70;4.88;;;;;;;-148.88;94.53;-17125.47;5032586;28;20251;-87
2023/10/11 03:33:02;;;;;;;9.98;5.30;;;;;;;-148.88;93.92;-17125.47;5031242;28;20486;-87
2023/10/11 03:35:30;;;;;;;10.57;5.28;;;;;;;-148.88;94.35;-17125.47;5032553;28;20021;-85
2023/10/11 03:37:58;;;;;;;10.45;5.63;;;;;;;-148.88;95.69;-17125.47;5031043;28;20029;-85
2023/10/11 03:40:34;;;;;;;12.63;5.07;;;;;;;-148.88;95.38;-17125.47;5032104;28;20025;-86
2023/10/11 03:43:11;;;;;;;11.15;5.40;;;;;;;-148.88;95.64;-17125.47;5032968;28;20029;-85
2023/10/11 03:45:39;;;;;;;12.52;5.60;;;;;;;-148.88;96.11;-17125.47;5035179;28;20034;-87
2023/10/11 03:48:09;;;;;;;8.43;4.95;;;;;;;-148.88;94.92;-17125.47;5035672;28;20021;-87
2023/10/11 03:50:37;;;;;;;11.27;6.05;;;;;;;-148.88;94.92;-17125.47;5035853;28;20045;-86
2023/10/11 03:53:10;;;;;;;8.50;5.03;;;;;;;-148.88;95.95;-17125.47;5036501;28;20186;-84
2023/10/11 03:55:48;;;;;;;9.45;5.00;;;;;;;-148.88;95.40;-17125.47;5036114;28;20097;-87
2023/10/11 03:58:29;;;;;;;10.40;5.45;;;;;;;-148.88;95.54;-17125.47;5035339;28;20022;-85
2023/10/11 04:01:00;;;;;;;10.13;5.15;;;;;;;-148.88;94.93;-17125.47;5035293;28;20021;-85
2023/10/11 04:03:26;;;;;;;13.02;5.07;;;;;;;-148.88;95.78;-17125.47;5034495;28;20060;-86
2023/10/11 04:05:51;;;;;;;9.60;5.47;;;;;;;-148.88;95.21;-17125.47;5035628;28;20060;-86
2023/10/11 04:08:24;;;;;;;13.10;5.10;;;;;;;-148.88;95.25;-17125.47;5035578;28;20029;-86
2023/10/11 04:10:53;;;;;;;9.98;5.30;;;;;;;-148.88;96.17;-17125.47;5033974;28;20021;-86
2023/10/11 04:13:25;;;;;;;9.65;5.28;;;;;;;-148.88;96.19;-17125.47;5033972;28;20039;-87
2023/10/11 04:15:52;;;;;;;9.32;4.75;;;;;;;-148.88;95.93;-17125.47;5033853;28;20027;-87
2023/10/11 04:18:32;;;;;;;11.15;5.43;;;;;;;-148.88;96.57;-17125.47;5035151;28;20504;-86
2023/10/11 04:23:36;;;;;;;12.07;5.15;;;;;;;-148.88;97.36;-17125.47;5036074;28;20030;-87
2023/10/11 04:26:22;;;;;;;11.48;5.32;;;;;;;-148.88;96.80;-17125.47;5034947;28;20059;-86
2023/10/11 04:28:51;;;;;;;11.68;5.20;;;;;;;-148.88;96.10;-17125.47;5033650;28;20025;-86
2023/10/11 04:31:28;;;;;;;11.50;5.40;;;;;;;-148.88;96.40;-17125.47;5034851;28;20036;-86
2023/10/11 04:33:54;;;;;;;12.05;5.28;;;;;;;-148.88;95.79;-17125.47;5035134;28;20025;-87
2023/10/11 04:36:20;;;;;;;11.38;5.28;;;;;;;-148.88;95.50;-17125.47;5035227;28;20036;-86
2023/10/11 04:38:50;;;;;;;10.15;4.72;;;;;;;-148.88;96.34;-17125.47;5033565;28;20017;-86
2023/10/11 04:41:18;;;;;;;12.20;5.43;;;;;;;-148.88;96.30;-17125.47;5033664;28;20029;-87
2023/10/11 04:43:50;;;;;;;11.48;4.97;;;;;;;-148.88;96.18;-17125.47;5034978;28;20375;-87
2023/10/11 04:46:16;;;;;;;9.52;4.90;;;;;;;-148.88;96.79;-17125.47;5033437;28;20021;-85
2023/10/11 04:48:44;;;;;;;11.05;5.60;;;;;;;-148.88;96.27;-17125.47;5033571;28;20436;-87
2023/10/11 04:53:54;;;;;;;11.80;5.60;;;;;;;-148.88;96.57;-17125.47;5034127;28;20130;-86
2023/10/11 04:59:19;;;;;;;11.07;5.70;;;;;;;-148.88;95.80;-17125.47;5034775;28;20029;-86
2023/10/11 05:04:14;;;;;;;11.57;5.50;;;;;;;-148.88;97.03;-17125.47;5034230;28;20025;-86
2023/10/11 05:06:41;;;;;;;8.73;5.00;;;;;;;-148.88;97.00;-17125.47;5034515;28;20049;-86
2023/10/11 05:09:21;;;;;;;10.73;5.55;;;;;;;-148.88;96.93;-17125.47;5034225;28;20074;-86
2023/10/11 05:11:53;;;;;;;8.57;5.22;;;;;;;-148.88;97.42;-17125.47;5034463;28;20025;-87
2023/10/11 05:14:29;;;;;;;10.98;5.70;;;;;;;-148.88;97.56;-17125.47;5033827;28;20033;-85
2023/10/11 05:19:55;;;;;;;11.00;4.93;;;;;;;-148.88;97.06;-17125.47;5034119;28;20025;-86
2023/10/11 05:22:29;;;;;;;10.90;5.43;;;;;;;-148.88;96.98;-17125.47;5033891;28;20108;-85
2023/10/11 05:32:50;;;;;;;9.40;5.10;;;;;;;-148.88;97.08;-17125.47;5034255;28;20025;-86
2023/10/11 05:51:28;;;;;;;13.23;5.28;;;;;;;-148.88;98.17;-17125.47;5034334;28;20056;-86
2023/10/11 05:53:55;;;;;;;12.02;5.80;;;;;;;-148.88;98.82;-17125.47;5033474;28;20033;-85
2023/10/11 05:56:23;;;;;;;8.90;5.20;;;;;;;-148.88;98.50;-17125.47;5033265;28;20409;-86
2023/10/11 05:58:53;;;;;;;9.43;4.82;;;;;;;-148.88;98.62;-17125.47;5032976;28;20037;-86
2023/10/11 06:01:22;;;;;;;15.40;5.20;;;;;;;-148.88;99.85;-17125.47;5033128;28;20025;-87
2023/10/11 06:03:51;;;;;;;13.05;5.75;;;;;;;-148.88;100.00;-17125.47;5033730;28;20025;-86
2023/10/11 06:09:16;;;;;;;12.07;5.25;;;;;;;-148.88;99.42;-17125.47;5033537;28;20555;-86
2023/10/11 06:11:47;;;;;;;12.43;5.45;;;;;;;-148.88;99.19;-17125.47;5033430;28;20017;-85
2023/10/11 06:14:16;;;;;;;12.13;5.85;;;;;;;-148.88;98.51;-17125.47;5032065;28;20486;-86
2023/10/11 06:16:44;;;;;;;11.27;5.47;;;;;;;-148.88;98.55;-17125.47;5033016;28;20473;-86
2023/10/11 06:19:18;;;;;;;11.25;5.30;;;;;;;-148.88;97.58;-17125.47;5033043;28;20056;-85
2023/10/11 06:22:09;;;;;;;10.68;5.18;;;;;;;-148.88;97.37;-17125.47;5031596;28;20036;-86
2023/10/11 06:24:36;;;;;;;9.25;5.00;;;;;;;-148.88;96.96;-17125.47;5033347;28;20425;-86
2023/10/11 06:29:53;;;;;;;8.93;4.90;;;;;;;-148.88;98.06;-17125.47;5033611;28;20449;-85
2023/10/11 06:32:21;;;;;;;12.18;5.65;;;;;;;-148.88;97.73;-17125.47;5031699;28;20018;-86
2023/10/11 06:34:50;;;;;;;11.68;5.30;;;;;;;-148.88;98.01;-17125.47;5031715;28;20465;-86
2023/10/11 06:37:18;;;;;;;10.10;4.97;;;;;;;-148.88;97.94;-17125.47;5031556;28;20034;-86
2023/10/11 06:42:13;;;;;;;11.85;5.20;;;;;;;-148.88;97.26;-17125.47;5032905;28;20045;-85
2023/10/11 06:44:39;;;;;;;10.13;4.90;;;;;;;-148.88;97.59;-17125.47;5033236;28;20432;-85
2023/10/11 06:47:05;;;;;;;13.38;5.78;;;;;;;-148.88;97.16;-17125.47;5032973;28;20555;-86
2023/10/11 06:49:32;;;;;;;9.15;4.40;;;;;;;-148.88;97.75;-17125.47;5032918;28;20025;-87
2023/10/11 06:52:01;;;;;;;9.60;4.82;;;;;;;-148.88;97.31;-17125.47;5031764;28;20021;-86
2023/10/11 06:54:32;;;;;;;11.52;5.10;;;;;;;-148.88;96.68;-17125.47;5031820;28;20392;-85
2023/10/11 06:56:57;;;;;;;6.93;4.63;;;;;;;-148.88;97.36;-17125.47;5032516;28;20017;-86
2023/10/11 06:59:23;;;;;;;9.85;4.68;;;;;;;-148.88;97.37;-17125.47;5032723;28;20397;-86
2023/10/11 07:01:48;;;;;;;11.52;5.22;;;;;;;-148.88;97.72;-17125.47;5033015;28;20026;-86
2023/10/11 07:04:18;;;;;;;12.95;5.10;;;;;;;-148.88;97.05;-17125.47;5031207;28;20440;-86
2023/10/11 07:06:46;;;;;;;10.32;5.00;;;;;;;-148.88;96.76;-17125.47;5031443;28;20088;-87
2023/10/11 07:09:22;;;;;;;10.57;4.80;;;;;;;-148.88;96.81;-17125.47;5031957;28;20046;-87
2023/10/11 07:12:18;;;;;;;12.30;4.85;;;;;;;-148.88;96.14;-17125.47;5032843;28;20124;-86
2023/10/11 07:14:40;;;;;;;13.15;5.65;;;;;;;-148.88;96.40;-17125.47;5032280;28;20457;-87
2023/10/11 07:17:08;;;;;;;10.13;5.00;;;;;;;-148.88;96.35;-17125.47;5032474;28;20036;-87
2023/10/11 07:19:36;;;;;;;10.07;4.80;;;;;;;-148.88;96.09;-17125.47;5034504;28;20022;-87
2023/10/11 07:22:04;;;;;;;9.98;5.15;;;;;;;-148.88;97.22;-17125.47;5036309;28;20066;-86
2023/10/11 07:27:53;;;;;;;8.93;5.68;;;;;;;-148.88;96.96;-17125.47;5036430;28;20083;-87
2023/10/11 07:29:48;;;;;;;9.43;5.43;;;;;;;-148.88;96.07;-17125.47;5031978;28;20494;-85
2023/10/11 07:32:14;;;;;;;11.10;4.85;;;;;;;-148.88;95.90;-17125.47;5035232;28;20544;-87
2023/10/11 07:34:40;;;;;;;11.52;4.70;;;;;;;-148.88;96.22;-17125.47;5035573;28;20029;-86
2023/10/11 07:37:06;;;;;;;12.05;5.13;;;;;;;-148.88;95.72;-17125.47;5036450;28;20025;-87
2023/10/11 07:39:33;;;;;;;11.68;5.30;;;;;;;-148.88;96.47;-17125.47;5034606;28;20472;-87
2023/10/11 07:42:10;;;;;;;10.43;5.30;;;;;;;-148.88;94.75;-17125.47;5036136;28;20128;-85
2023/10/11 07:44:39;;;;;;;8.25;4.72;;;;;;;-148.88;95.37;-17125.47;5036188;28;20017;-85
2023/10/11 07:47:15;;;;;;;10.15;5.00;;;;;;;-148.88;95.29;-17125.47;5035718;28;20033;-86
2023/10/11 07:49:41;;;;;;;10.80;5.07;;;;;;;-148.88;94.78;-17125.47;5035504;28;20027;-85
2023/10/11 07:52:13;;;;;;;11.48;5.35;;;;;;;-148.88;95.46;-17125.47;5035559;28;20393;-86
2023/10/11 07:54:43;;;;;;;9.85;4.60;;;;;;;-148.88;95.11;-17125.47;5034559;28;20027;-86
2023/10/11 07:57:14;;;;;;;11.27;5.15;;;;;;;-148.88;95.05;-17125.47;5035205;28;20021;-86
2023/10/11 07:59:40;;;;;;;10.52;5.25;;;;;;;-148.88;93.75;-17125.47;5034723;28;20117;-85
2023/10/11 08:02:16;;;;;;;10.57;4.80;;;;;;;-148.88;93.46;-17125.47;5035605;28;20071;-86
2023/10/11 08:04:47;;;;;;;9.98;5.05;;;;;;;-148.88;93.50;-17125.47;5035636;28;20029;-84
2023/10/11 08:07:16;;;;;;;10.98;5.03;;;;;;;-148.88;93.16;-17125.47;5035401;28;20032;-85
2023/10/11 08:09:45;;;;;;;9.95;4.90;;;;;;;-148.88;92.41;-17125.47;5033986;28;20140;-86
2023/10/11 08:12:13;;;;;;;9.50;4.80;;;;;;;-148.88;92.51;-17125.47;5035248;28;20022;-86
2023/10/11 08:14:44;;;;;;;12.30;5.07;;;;;;;-148.88;93.57;-17125.47;5035439;28;20033;-86
2023/10/11 08:17:19;;;;;;;10.52;4.70;;;;;;;-148.88;91.51;-17125.47;5035634;28;20033;-86
2023/10/11 08:19:46;;;;;;;10.50;4.85;;;;;;;-148.88;91.97;-17125.47;5034433;28;20029;-85
2023/10/11 08:22:16;;;;;;;9.25;4.90;;;;;;;-148.88;93.29;-17125.47;5035261;28;20156;-85
2023/10/11 08:24:49;;;;;;;9.60;5.28;;;;;;;-148.88;91.11;-17125.47;5035495;28;20067;-85
2023/10/11 08:30:16;;;;;;;11.40;4.93;;;;;;;-148.88;90.69;-17125.47;5035548;28;20116;-84
2023/10/11 08:32:47;;;;;;;12.27;4.90;;;;;;;-148.88;90.29;-17125.47;5035090;28;20429;-86
2023/10/11 08:35:23;;;;;;;10.68;4.75;;;;;;;-148.88;89.95;-17125.47;5034483;28;20017;-86
2023/10/11 08:37:52;;;;;;;9.65;4.57;;;;;;;-148.88;89.66;-17125.47;5033975;28;20040;-86
2023/10/11 08:40:29;;;;;;;8.35;4.68;;;;;;;-148.88;90.31;-17125.47;5034686;28;20029;-85
2023/10/11 08:42:59;;;;;;;9.50;4.95;;;;;;;-148.88;89.68;-17125.47;5034724;28;20037;-86
2023/10/11 08:45:28;;;;;;;7.35;4.78;;;;;;;-148.88;88.72;-17125.47;5033799;28;20112;-85
2023/10/11 08:47:57;;;;;;;11.30;4.72;;;;;;;-148.88;89.29;-17125.47;5035036;28;20421;-86
2023/10/11 08:50:26;;;;;;;10.02;5.13;;;;;;;-148.88;89.82;-17125.47;5034628;28;20065;-86
2023/10/11 08:52:55;;;;;;;9.82;4.80;;;;;;;-148.88;88.76;-17125.47;5034803;28;20025;-84
2023/10/11 08:55:24;;;;;;;8.13;4.35;;;;;;;-148.88;90.12;-17125.47;5034788;28;20444;-84
2023/10/11 08:57:50;;;;;;;8.65;4.28;;;;;;;-148.88;88.48;-17125.47;5034641;28;20021;-86
2023/10/11 09:00:28;;;;;;;11.05;4.47;;;;;;;-148.88;87.58;-17125.47;5034634;28;20026;-85
2023/10/11 09:02:54;;;;;;;10.85;5.63;;;;;;;-148.88;88.06;-17125.47;5034570;28;20026;-86
2023/10/11 09:05:28;;;;;;;8.18;4.30;;;;;;;-148.88;88.16;-17125.47;5034128;28;20065;-87
2023/10/11 09:07:55;;;;;;;9.00;4.88;;;;;;;-148.88;89.27;-17125.47;5034422;28;20025;-87
2023/10/11 09:10:25;;;;;;;8.68;4.55;;;;;;;-148.88;86.95;-17125.47;5034657;28;20236;-86
2023/10/11 09:12:56;;;;;;;9.82;4.28;;;;;;;-148.88;86.32;-17125.47;5033404;28;20485;-85
2023/10/11 09:15:40;;;;;;;9.45;4.82;;;;;;;-148.88;85.55;-17125.47;5034756;28;20037;-84
2023/10/11 09:18:12;;;;;;;10.85;4.28;;;;;;;-148.88;85.07;-17125.47;5034073;28;20025;-84
2023/10/11 09:20:40;;;;;;;10.38;4.53;;;;;;;-148.88;84.71;-17125.47;5034656;28;20432;-86
2023/10/11 09:23:06;;;;;;;7.22;4.18;;;;;;;-148.88;85.86;-17125.47;5034297;28;20018;-85
2023/10/11 09:25:41;;;;;;;8.88;4.70;;;;;;;-148.88;87.13;-17125.47;5034212;28;20025;-86
2023/10/11 09:28:16;;;;;;;8.38;4.78;;;;;;;-148.88;85.71;-17125.47;5034404;28;20036;-85
2023/10/11 09:30:44;;;;;;;15.05;4.90;;;;;;;-148.88;85.74;-17125.47;5034227;28;20112;-84
2023/10/11 09:33:19;;;;;;;6.95;4.32;;;;;;;-148.88;83.89;-17125.47;5033838;28;20028;-85
2023/10/11 09:35:49;;;;;;;13.60;4.45;;;;;;;-148.88;83.65;-17125.47;5034382;28;20028;-85
2023/10/11 09:38:19;;;;;;;9.98;4.32;;;;;;;-148.88;85.07;-17125.47;5033274;28;20029;-84
2023/10/11 09:40:44;;;;;;;8.77;4.85;;;;;;;-148.88;82.75;-17125.47;5032949;28;20063;-86
2023/10/11 09:43:16;;;;;;;6.05;3.58;;;;;;;-148.88;83.03;-17125.47;5032429;28;20021;-87
2023/10/11 09:45:44;;;;;;;9.20;4.45;;;;;;;-148.88;80.61;-17125.47;5032419;28;20397;-86
2023/10/11 09:48:17;;;;;;;9.50;4.25;;;;;;;-148.88;80.49;-17125.47;5033844;28;20029;-86
2023/10/11 09:50:43;;;;;;;11.77;4.50;;;;;;;-148.88;81.17;-17125.47;5032961;28;20053;-84
2023/10/11 09:53:13;;;;;;;12.25;4.50;;;;;;;-148.88;79.62;-17125.47;5033829;28;20517;-85
2023/10/11 09:55:57;;;;;;;9.25;4.82;;;;;;;-148.88;81.15;-17125.47;5033824;28;20040;-86
2023/10/11 09:58:41;;;;;;;9.25;4.07;;;;;;;-148.88;80.94;-17125.47;5033957;28;20028;-85
2023/10/11 10:01:15;;;;;;;7.47;4.13;;;;;;;-148.88;80.50;-17125.47;5032295;28;20096;-85
2023/10/11 10:03:52;;;;;;;9.80;4.20;;;;;;;-148.88;79.90;-17125.47;5033449;28;20052;-86
2023/10/11 10:06:18;;;;;;;9.32;4.60;;;;;;;-148.88;77.39;-17125.47;5033051;28;20140;-86
2023/10/11 10:09:47;;;;;;;11.15;4.40;;;;;;;-148.88;76.62;-17125.47;5033413;28;20056;-86
2023/10/11 10:12:11;;;;;;;10.10;4.80;;;;;;;-148.88;76.92;-17125.47;5021904;28;20029;-86
2023/10/11 10:14:37;;;;;;;8.73;4.40;;;;;;;-148.88;74.93;-17125.47;5032191;28;20025;-86
2023/10/11 10:17:10;;;;;;;11.05;4.57;;;;;;;-148.88;75.33;-17125.47;5032476;28;20109;-87
2023/10/11 10:19:39;;;;;;;12.68;4.38;;;;;;;-148.88;73.82;-17125.47;5031801;28;20505;-87
2023/10/11 10:22:17;;;;;;;8.82;4.28;;;;;;;-148.88;74.06;-17125.47;5032252;28;20036;-85
2023/10/11 10:24:46;;;;;;;10.70;4.22;;;;;;;-148.88;75.44;-17125.47;5033786;28;20485;-84
2023/10/11 10:27:35;;;;;;;13.63;4.35;;;;;;;-148.88;73.52;-17125.47;5033382;28;20045;-86
2023/10/11 10:30:06;;;;;;;11.32;4.38;;;;;;;-148.88;73.68;-17125.47;5031698;28;20055;-86
2023/10/11 10:32:32;;;;;;;12.75;4.65;;;;;;;-148.88;73.28;-17125.47;5031938;28;20366;-86
2023/10/11 10:35:19;;;;;;;11.40;4.22;;;;;;;-148.88;76.15;-17125.47;5033054;28;20504;-85
2023/10/11 10:37:47;;;;;;;10.20;3.75;;;;;;;-148.88;73.85;-17125.47;5031696;28;20382;-86
2023/10/11 10:40:29;;;;;;;10.65;4.00;;;;;;;-148.88;74.16;-17125.47;5071940;23;20036;-85
2023/10/11 10:46:53;;;;;;;11.20;4.85;;;;;;;-148.88;75.03;-17125.47;4982719;28;20023;-84
2023/10/11 10:50:07;;;;;;;;;;;;;;;;;;;;;
2023/10/11 10:52:40;;;;;;;8.45;4.18;;;;;;;-148.88;75.90;-17125.47;5026632;28;20061;-84
2023/10/11 10:55:42;;;;;;;;;;;;;;;-148.88;75.78;-17125.47;5028855;28;20050;-83
2023/10/11 10:59:01;;;;;;;11.23;4.25;;;;;;;-148.88;74.68;-17125.47;5003678;28;19921;-85
2023/10/11 11:01:51;;;;;;;15.23;4.90;;;;;;;-148.88;72.23;-17125.47;4930393;29;20036;-82
2023/10/11 11:04:29;;;;;;;13.63;4.78;;;;;;;-148.88;73.84;-17125.47;4935486;29;20098;-84
2023/10/11 11:07:03;;;;;;;15.35;4.60;;;;;;;-148.88;74.89;-17125.47;4936740;29;20036;-85
2023/10/11 11:09:42;;;;;;;12.35;4.70;;;;;;;-148.88;76.62;-17125.47;4934753;29;20031;-82
2023/10/11 11:12:17;;;;;;;9.60;4.10;;;;;;;-148.88;74.60;-17125.47;4933444;29;20118;-84
2023/10/11 11:14:57;;;;;;;12.38;4.45;;;;;;;-148.88;73.76;-17125.47;4927597;29;20042;-83
2023/10/11 11:17:36;;;;;;;12.40;4.60;;;;;;;-148.88;75.58;-17125.47;4975995;28;20037;-82
2023/10/11 11:20:14;;;;;;;8.55;4.43;;;;;;;-148.88;75.34;-17125.47;5028014;28;20030;-84
2023/10/11 11:23:27;;;;;;;9.50;4.88;;;;;;;-148.88;76.82;-17125.47;5027339;28;20030;-83
2023/10/11 11:26:04;;;;;;;9.27;4.47;;;;;;;-148.88;77.73;-17125.47;5027149;28;20029;-84
2023/10/11 11:28:39;;;;;;;16.58;4.47;;;;;;;-148.88;78.05;-17125.47;5027512;28;20101;-82
2023/10/11 11:31:31;;;;;;;12.65;4.70;;;;;;;-148.88;78.23;-17125.47;5028078;28;20025;-85
2023/10/11 11:34:15;;;;;;;10.77;4.60;;;;;;;-148.88;79.08;-17125.47;5028207;28;20026;-82
2023/10/11 11:37:00;;;;;;;15.70;5.40;;;;;;;-148.88;79.87;-17125.47;5029147;28;20053;-83
2023/10/11 11:40:17;;;;;;;13.65;5.25;;;;;;;-148.88;79.01;-17125.47;5028601;28;20025;-83
2023/10/11 11:42:47;;;;;;;16.27;5.20;;;;;;;-148.88;80.57;-17125.47;5029070;28;20048;-82
2023/10/11 11:45:14;;;;;;;10.43;4.75;;;;;;;-148.88;80.68;-17125.47;5026316;28;20022;-82
2023/10/11 11:48:00;;;;;;;9.80;4.13;;;;;;;-148.88;81.04;-17125.47;5026195;28;20026;-82
2023/10/11 11:50:36;;;;;;;12.82;4.93;;;;;;;-148.88;81.64;-17125.47;5021459;28;20041;-81
2023/10/11 11:53:05;;;;;;;9.75;4.35;;;;;;;-148.88;82.31;-17125.47;5021420;28;20033;-82
2023/10/11 11:55:54;;;;;;;10.23;4.53;;;;;;;-148.88;81.40;-17125.47;5022921;28;20022;-83
2023/10/11 11:59:01;;;;;;;;;;;;;;;;;;;;;
2023/10/11 12:01:26;;;;;;;12.25;4.40;;;;;;;-148.88;85.01;-17125.47;5028030;28;20086;-86
2023/10/11 12:04:56;;;;;;;9.20;4.57;;;;;;;-148.88;84.55;-17125.47;5026337;28;20028;-84
2023/10/11 12:07:46;;;;;;;9.60;4.57;;;;;;;-148.88;84.77;-17125.47;4932631;29;20519;-82
2023/10/11 12:17:53;;;;;;;9.10;5.18;;;;;;;-148.88;84.36;-17125.47;5019379;28;20121;-84
2023/10/11 12:20:47;;;;;;;12.93;5.05;;;;;;;-148.88;85.66;-17125.47;4938959;28;20133;-85
2023/10/11 12:29:47;;;;;;;10.15;4.95;;;;;;;-148.88;87.59;-17125.47;5023820;28;20041;-83
2023/10/11 12:32:59;;;;;;;12.27;5.70;;;;;;;-148.88;86.47;-17125.47;5026686;28;20025;-83
2023/10/11 12:35:41;;;;;;;12.30;5.28;;;;;;;-148.88;87.30;-17125.47;5001152;28;20045;-82
2023/10/11 12:38:23;;;;;;;10.65;5.03;;;;;;;-148.88;88.26;-17125.47;5027984;28;20033;-83
2023/10/11 12:41:14;;;;;;;11.40;4.88;;;;;;;-148.88;88.70;-17125.47;5025594;28;20119;-82